sensor_id;sensor_type;location;lat;lon;timestamp;pressure;altitude;pressure_sealevel;temperature;humidity
37852;BME280;23691;52.486;4.650;2023-01-31T00:01:19;102424.84;;;6.92;74.24
37852;BME280;23691;52.486;4.650;2023-01-31T00:03:45;102421.97;;;6.95;74.33
37852;BME280;23691;52.486;4.650;2023-01-31T00:08:40;102406.00;;;6.95;74.18
37852;BME280;23691;52.486;4.650;2023-01-31T00:11:06;102398.88;;;6.96;74.08
37852;BME280;23691;52.486;4.650;2023-01-31T00:13:31;102408.44;;;6.98;74.15
37852;BME280;23691;52.486;4.650;2023-01-31T00:15:57;102398.66;;;6.99;73.98
37852;BME280;23691;52.486;4.650;2023-01-31T00:18:22;102396.75;;;7.01;73.61
37852;BME280;23691;52.486;4.650;2023-01-31T00:20:48;102385.34;;;6.99;74.11
37852;BME280;23691;52.486;4.650;2023-01-31T00:23:13;102378.25;;;6.99;73.91
37852;BME280;23691;52.486;4.650;2023-01-31T00:25:39;102377.28;;;7.00;73.57
37852;BME280;23691;52.486;4.650;2023-01-31T00:28:04;102375.47;;;7.01;73.86
37852;BME280;23691;52.486;4.650;2023-01-31T00:30:29;102368.44;;;7.00;73.72
37852;BME280;23691;52.486;4.650;2023-01-31T00:32:55;102370.34;;;6.98;73.56
37852;BME280;23691;52.486;4.650;2023-01-31T00:35:20;102363.34;;;6.97;73.76
37852;BME280;23691;52.486;4.650;2023-01-31T00:37:46;102353.53;;;6.97;73.77
37852;BME280;23691;52.486;4.650;2023-01-31T00:40:11;102355.22;;;6.98;73.93
37852;BME280;23691;52.486;4.650;2023-01-31T00:42:37;102350.88;;;6.97;74.16
37852;BME280;23691;52.486;4.650;2023-01-31T00:45:03;102347.38;;;6.97;74.39
37852;BME280;23691;52.486;4.650;2023-01-31T00:47:28;102355.34;;;6.97;74.55
37852;BME280;23691;52.486;4.650;2023-01-31T00:49:53;102345.44;;;6.99;74.43
37852;BME280;23691;52.486;4.650;2023-01-31T00:52:19;102349.16;;;6.96;74.39
37852;BME280;23691;52.486;4.650;2023-01-31T00:54:44;102331.50;;;6.95;74.66
37852;BME280;23691;52.486;4.650;2023-01-31T00:57:10;102330.88;;;6.92;75.02
37852;BME280;23691;52.486;4.650;2023-01-31T00:59:35;102324.78;;;6.90;75.38
37852;BME280;23691;52.486;4.650;2023-01-31T01:02:00;102317.66;;;6.90;75.66
37852;BME280;23691;52.486;4.650;2023-01-31T01:04:26;102310.53;;;6.91;75.77
37852;BME280;23691;52.486;4.650;2023-01-31T01:06:51;102299.78;;;6.92;76.71
37852;BME280;23691;52.486;4.650;2023-01-31T01:09:16;102308.53;;;6.94;77.10
37852;BME280;23691;52.486;4.650;2023-01-31T01:11:42;102314.56;;;6.96;77.52
37852;BME280;23691;52.486;4.650;2023-01-31T01:14:07;102296.59;;;7.00;77.95
37852;BME280;23691;52.486;4.650;2023-01-31T01:16:35;102295.53;;;7.02;78.12
37852;BME280;23691;52.486;4.650;2023-01-31T01:19:03;102315.84;;;7.03;78.44
37852;BME280;23691;52.486;4.650;2023-01-31T01:21:30;102305.88;;;7.07;78.62
37852;BME280;23691;52.486;4.650;2023-01-31T01:23:58;102301.28;;;7.09;78.84
37852;BME280;23691;52.486;4.650;2023-01-31T01:26:26;102309.16;;;7.10;78.94
37852;BME280;23691;52.486;4.650;2023-01-31T01:28:52;102317.97;;;7.11;78.97
37852;BME280;23691;52.486;4.650;2023-01-31T01:31:19;102311.59;;;7.14;79.16
37852;BME280;23691;52.486;4.650;2023-01-31T01:33:46;102315.88;;;7.16;79.39
37852;BME280;23691;52.486;4.650;2023-01-31T01:36:13;102321.06;;;7.18;79.58
37852;BME280;23691;52.486;4.650;2023-01-31T01:38:42;102321.59;;;7.23;79.62
37852;BME280;23691;52.486;4.650;2023-01-31T01:41:09;102321.38;;;7.26;79.82
37852;BME280;23691;52.486;4.650;2023-01-31T01:43:40;102319.59;;;7.26;79.81
37852;BME280;23691;52.486;4.650;2023-01-31T01:46:08;102304.47;;;7.27;80.27
37852;BME280;23691;52.486;4.650;2023-01-31T01:48:35;102297.97;;;7.31;80.21
37852;BME280;23691;52.486;4.650;2023-01-31T01:51:03;102310.53;;;7.29;80.43
37852;BME280;23691;52.486;4.650;2023-01-31T01:53:29;102322.03;;;7.29;80.50
37852;BME280;23691;52.486;4.650;2023-01-31T01:56:01;102306.91;;;7.30;80.76
37852;BME280;23691;52.486;4.650;2023-01-31T01:58:32;102314.81;;;7.31;80.78
37852;BME280;23691;52.486;4.650;2023-01-31T02:01:02;102320.13;;;7.31;80.81
37852;BME280;23691;52.486;4.650;2023-01-31T02:03:28;102326.41;;;7.30;81.01
37852;BME280;23691;52.486;4.650;2023-01-31T02:05:58;102321.06;;;7.30;80.65
37852;BME280;23691;52.486;4.650;2023-01-31T02:08:26;102312.22;;;7.30;81.16
37852;BME280;23691;52.486;4.650;2023-01-31T02:13:23;102307.56;;;7.34;80.95
37852;BME280;23691;52.486;4.650;2023-01-31T02:15:49;102306.59;;;7.35;80.83
37852;BME280;23691;52.486;4.650;2023-01-31T02:18:15;102294.97;;;7.36;80.26
37852;BME280;23691;52.486;4.650;2023-01-31T02:34:06;102289.31;;;7.40;80.11
37852;BME280;23691;52.486;4.650;2023-01-31T02:39:27;102281.47;;;7.39;79.96
37852;BME280;23691;52.486;4.650;2023-01-31T02:42:09;102291.25;;;7.38;80.12
37852;BME280;23691;52.486;4.650;2023-01-31T02:50:43;102299.66;;;7.32;80.17
37852;BME280;23691;52.486;4.650;2023-01-31T02:56:13;102277.41;;;7.33;79.93
37852;BME280;23691;52.486;4.650;2023-01-31T02:59:04;102291.47;;;7.35;80.07
37852;BME280;23691;52.486;4.650;2023-01-31T03:01:36;102288.19;;;7.31;80.24
37852;BME280;23691;52.486;4.650;2023-01-31T03:04:05;102273.28;;;7.29;80.18
37852;BME280;23691;52.486;4.650;2023-01-31T03:17:16;102256.88;;;7.22;80.25
37852;BME280;23691;52.486;4.650;2023-01-31T03:20:15;102255.91;;;7.23;80.43
37852;BME280;23691;52.486;4.650;2023-01-31T03:22:45;102252.63;;;7.20;80.62
37852;BME280;23691;52.486;4.650;2023-01-31T03:25:14;102255.28;;;7.20;80.77
37852;BME280;23691;52.486;4.650;2023-01-31T03:27:43;102251.03;;;7.17;80.70
37852;BME280;23691;52.486;4.650;2023-01-31T03:30:16;102256.34;;;7.17;80.59
37852;BME280;23691;52.486;4.650;2023-01-31T03:32:52;102249.22;;;7.18;80.71
37852;BME280;23691;52.486;4.650;2023-01-31T03:35:23;102254.66;;;7.16;81.16
37852;BME280;23691;52.486;4.650;2023-01-31T03:38:13;102238.69;;;7.16;81.30
37852;BME280;23691;52.486;4.650;2023-01-31T03:41:18;102238.56;;;7.18;81.29
37852;BME280;23691;52.486;4.650;2023-01-31T03:43:56;102226.09;;;7.18;81.22
37852;BME280;23691;52.486;4.650;2023-01-31T03:46:34;102224.09;;;7.22;81.39
37852;BME280;23691;52.486;4.650;2023-01-31T03:49:03;102219.50;;;7.24;81.31
37852;BME280;23691;52.486;4.650;2023-01-31T03:51:35;102227.59;;;7.22;81.58
37852;BME280;23691;52.486;4.650;2023-01-31T03:54:08;102220.44;;;7.23;81.51
37852;BME280;23691;52.486;4.650;2023-01-31T03:56:42;102223.00;;;7.24;81.81
37852;BME280;23691;52.486;4.650;2023-01-31T03:59:16;102222.38;;;7.21;82.00
37852;BME280;23691;52.486;4.650;2023-01-31T04:01:45;102224.94;;;7.22;82.15
37852;BME280;23691;52.486;4.650;2023-01-31T04:04:30;102218.75;;;7.22;82.08
37852;BME280;23691;52.486;4.650;2023-01-31T04:06:57;102217.03;;;7.21;82.27
37852;BME280;23691;52.486;4.650;2023-01-31T04:09:24;102224.94;;;7.22;82.04
37852;BME280;23691;52.486;4.650;2023-01-31T04:11:50;102203.72;;;7.21;82.01
37852;BME280;23691;52.486;4.650;2023-01-31T04:14:16;102201.81;;;7.23;81.79
37852;BME280;23691;52.486;4.650;2023-01-31T04:16:41;102211.63;;;7.22;81.67
37852;BME280;23691;52.486;4.650;2023-01-31T04:19:07;102209.81;;;7.23;81.33
37852;BME280;23691;52.486;4.650;2023-01-31T04:21:32;102212.38;;;7.24;81.56
37852;BME280;23691;52.486;4.650;2023-01-31T04:23:58;102203.53;;;7.24;81.46
37852;BME280;23691;52.486;4.650;2023-01-31T04:26:23;102201.72;;;7.24;81.43
37852;BME280;23691;52.486;4.650;2023-01-31T04:28:49;102198.94;;;7.26;81.41
37852;BME280;23691;52.486;4.650;2023-01-31T04:31:14;102189.16;;;7.26;80.88
37852;BME280;23691;52.486;4.650;2023-01-31T04:33:39;102189.25;;;7.25;80.93
37852;BME280;23691;52.486;4.650;2023-01-31T04:36:05;102200.75;;;7.25;81.04
37852;BME280;23691;52.486;4.650;2023-01-31T04:38:31;102202.56;;;7.25;80.94
37852;BME280;23691;52.486;4.650;2023-01-31T04:40:56;102206.06;;;7.25;80.84
37852;BME280;23691;52.486;4.650;2023-01-31T04:43:22;102201.59;;;7.26;80.77
37852;BME280;23691;52.486;4.650;2023-01-31T04:45:47;102189.03;;;7.28;80.71
37852;BME280;23691;52.486;4.650;2023-01-31T04:48:12;102196.16;;;7.27;80.24
37852;BME280;23691;52.486;4.650;2023-01-31T04:50:38;102197.84;;;7.28;80.25
37852;BME280;23691;52.486;4.650;2023-01-31T04:53:03;102186.50;;;7.26;79.88
37852;BME280;23691;52.486;4.650;2023-01-31T04:55:29;102182.25;;;7.24;79.80
37852;BME280;23691;52.486;4.650;2023-01-31T04:57:54;102179.44;;;7.25;79.76
37852;BME280;23691;52.486;4.650;2023-01-31T05:00:20;102176.91;;;7.24;79.85
37852;BME280;23691;52.486;4.650;2023-01-31T05:02:45;102177.75;;;7.24;79.61
37852;BME280;23691;52.486;4.650;2023-01-31T05:05:11;102169.63;;;7.26;79.92
37852;BME280;23691;52.486;4.650;2023-01-31T05:07:39;102164.44;;;7.24;79.75
37852;BME280;23691;52.486;4.650;2023-01-31T05:10:05;102175.09;;;7.24;79.73
37852;BME280;23691;52.486;4.650;2023-01-31T05:12:31;102158.91;;;7.27;79.71
37852;BME280;23691;52.486;4.650;2023-01-31T05:14:56;102179.22;;;7.28;79.55
37852;BME280;23691;52.486;4.650;2023-01-31T05:17:22;102180.94;;;7.29;79.89
37852;BME280;23691;52.486;4.650;2023-01-31T05:19:54;102174.78;;;7.29;80.16
37852;BME280;23691;52.486;4.650;2023-01-31T05:22:20;102171.13;;;7.30;80.28
37852;BME280;23691;52.486;4.650;2023-01-31T05:24:47;102181.69;;;7.31;80.38
37852;BME280;23691;52.486;4.650;2023-01-31T05:27:12;102164.63;;;7.34;80.46
37852;BME280;23691;52.486;4.650;2023-01-31T05:29:38;102152.91;;;7.37;80.65
37852;BME280;23691;52.486;4.650;2023-01-31T05:32:04;102153.00;;;7.35;80.61
37852;BME280;23691;52.486;4.650;2023-01-31T05:34:30;102147.47;;;7.38;80.84
37852;BME280;23691;52.486;4.650;2023-01-31T05:36:57;102151.84;;;7.39;80.76
37852;BME280;23691;52.486;4.650;2023-01-31T05:39:23;102143.22;;;7.36;81.08
37852;BME280;23691;52.486;4.650;2023-01-31T05:41:48;102147.81;;;7.34;81.30
37852;BME280;23691;52.486;4.650;2023-01-31T05:44:14;102139.84;;;7.34;81.40
37852;BME280;23691;52.486;4.650;2023-01-31T05:46:41;102136.19;;;7.35;81.38
37852;BME280;23691;52.486;4.650;2023-01-31T05:49:06;102133.53;;;7.35;81.30
37852;BME280;23691;52.486;4.650;2023-01-31T05:51:32;102126.38;;;7.35;80.93
37852;BME280;23691;52.486;4.650;2023-01-31T05:53:57;102138.84;;;7.35;80.64
37852;BME280;23691;52.486;4.650;2023-01-31T05:56:23;102136.19;;;7.35;80.68
37852;BME280;23691;52.486;4.650;2023-01-31T05:58:49;102138.84;;;7.35;80.53
37852;BME280;23691;52.486;4.650;2023-01-31T06:01:24;102135.97;;;7.38;80.69
37852;BME280;23691;52.486;4.650;2023-01-31T06:03:50;102147.59;;;7.37;80.72
37852;BME280;23691;52.486;4.650;2023-01-31T06:06:16;102139.84;;;7.34;80.66
37852;BME280;23691;52.486;4.650;2023-01-31T06:08:41;102144.28;;;7.33;80.84
37852;BME280;23691;52.486;4.650;2023-01-31T06:11:08;102137.16;;;7.34;81.05
37852;BME280;23691;52.486;4.650;2023-01-31T06:13:36;102130.13;;;7.32;81.25
37852;BME280;23691;52.486;4.650;2023-01-31T06:16:01;102139.19;;;7.30;81.47
37852;BME280;23691;52.486;4.650;2023-01-31T06:18:27;102110.00;;;7.28;82.19
37852;BME280;23691;52.486;4.650;2023-01-31T06:20:52;102108.53;;;7.24;82.33
37852;BME280;23691;52.486;4.650;2023-01-31T06:23:18;102111.31;;;7.23;82.45
37852;BME280;23691;52.486;4.650;2023-01-31T06:25:48;102097.91;;;7.24;82.61
37852;BME280;23691;52.486;4.650;2023-01-31T06:28:13;102096.06;;;7.25;82.56
37852;BME280;23691;52.486;4.650;2023-01-31T06:30:38;102086.41;;;7.24;82.63
37852;BME280;23691;52.486;4.650;2023-01-31T06:33:04;102078.75;;;7.19;82.78
37852;BME280;23691;52.486;4.650;2023-01-31T06:35:29;102088.44;;;7.20;82.78
37852;BME280;23691;52.486;4.650;2023-01-31T06:37:55;102099.22;;;7.19;83.02
37852;BME280;23691;52.486;4.650;2023-01-31T06:40:20;102083.44;;;7.16;83.36
37852;BME280;23691;52.486;4.650;2023-01-31T06:42:45;102096.97;;;7.13;83.67
37852;BME280;23691;52.486;4.650;2023-01-31T06:45:11;102089.00;;;7.13;83.63
37852;BME280;23691;52.486;4.650;2023-01-31T06:47:36;102103.47;;;7.08;83.85
37852;BME280;23691;52.486;4.650;2023-01-31T06:50:02;102099.22;;;7.06;84.04
37852;BME280;23691;52.486;4.650;2023-01-31T06:52:28;102086.88;;;7.05;84.31
37852;BME280;23691;52.486;4.650;2023-01-31T06:54:53;102086.25;;;7.01;84.64
37852;BME280;23691;52.486;4.650;2023-01-31T06:57:18;102082.53;;;7.04;84.91
37852;BME280;23691;52.486;4.650;2023-01-31T06:59:44;102072.59;;;7.06;84.86
37852;BME280;23691;52.486;4.650;2023-01-31T07:02:10;102079.53;;;7.08;84.85
37852;BME280;23691;52.486;4.650;2023-01-31T07:04:36;102077.84;;;7.07;84.93
37852;BME280;23691;52.486;4.650;2023-01-31T07:07:01;102066.34;;;7.07;85.15
37852;BME280;23691;52.486;4.650;2023-01-31T07:09:27;102083.25;;;7.06;85.42
37852;BME280;23691;52.486;4.650;2023-01-31T07:11:52;102088.56;;;7.06;85.33
37852;BME280;23691;52.486;4.650;2023-01-31T07:14:17;102085.91;;;7.06;85.23
37852;BME280;23691;52.486;4.650;2023-01-31T07:16:43;102061.97;;;7.06;85.37
37852;BME280;23691;52.486;4.650;2023-01-31T07:19:08;102059.31;;;7.06;85.37
37852;BME280;23691;52.486;4.650;2023-01-31T07:21:33;102060.28;;;7.05;85.58
37852;BME280;23691;52.486;4.650;2023-01-31T07:24:03;102048.88;;;7.03;85.26
37852;BME280;23691;52.486;4.650;2023-01-31T07:26:29;102046.22;;;7.03;85.22
37852;BME280;23691;52.486;4.650;2023-01-31T07:28:54;102055.19;;;7.02;85.11
37852;BME280;23691;52.486;4.650;2023-01-31T07:31:20;102042.81;;;7.01;85.02
37852;BME280;23691;52.486;4.650;2023-01-31T07:33:45;102050.72;;;7.02;84.95
37852;BME280;23691;52.486;4.650;2023-01-31T07:36:13;102036.44;;;7.03;85.09
37852;BME280;23691;52.486;4.650;2023-01-31T07:38:39;102044.63;;;7.00;84.93
37852;BME280;23691;52.486;4.650;2023-01-31T07:41:05;102039.22;;;7.02;84.76
37852;BME280;23691;52.486;4.650;2023-01-31T07:43:32;102045.38;;;7.02;84.73
37852;BME280;23691;52.486;4.650;2023-01-31T07:45:58;102046.00;;;7.06;84.63
37852;BME280;23691;52.486;4.650;2023-01-31T07:48:23;102050.25;;;7.08;84.81
37852;BME280;23691;52.486;4.650;2023-01-31T07:50:56;102047.38;;;7.12;84.87
37852;BME280;23691;52.486;4.650;2023-01-31T07:53:22;102052.56;;;7.13;84.67
37852;BME280;23691;52.486;4.650;2023-01-31T07:55:47;102031.06;;;7.16;84.79
37852;BME280;23691;52.486;4.650;2023-01-31T07:58:14;102028.03;;;7.21;84.64
37852;BME280;23691;52.486;4.650;2023-01-31T08:00:40;102041.25;;;7.22;84.82
37852;BME280;23691;52.486;4.650;2023-01-31T08:03:27;102031.34;;;7.24;84.89
37852;BME280;23691;52.486;4.650;2023-01-31T08:06:05;102030.13;;;7.28;85.03
37852;BME280;23691;52.486;4.650;2023-01-31T08:08:31;102031.84;;;7.29;85.20
37852;BME280;23691;52.486;4.650;2023-01-31T08:10:57;102029.94;;;7.31;85.35
37852;BME280;23691;52.486;4.650;2023-01-31T08:13:22;102033.34;;;7.34;85.79
37852;BME280;23691;52.486;4.650;2023-01-31T08:15:50;102036.00;;;7.34;86.42
37852;BME280;23691;52.486;4.650;2023-01-31T08:18:16;102023.91;;;7.41;86.42
37852;BME280;23691;52.486;4.650;2023-01-31T08:20:41;102005.91;;;7.44;86.51
37852;BME280;23691;52.486;4.650;2023-01-31T08:23:07;102011.13;;;7.46;86.73
37852;BME280;23691;52.486;4.650;2023-01-31T08:25:32;101999.38;;;7.48;86.78
37852;BME280;23691;52.486;4.650;2023-01-31T08:27:58;102011.38;;;7.54;87.11
37852;BME280;23691;52.486;4.650;2023-01-31T08:30:24;102020.84;;;7.58;87.02
37852;BME280;23691;52.486;4.650;2023-01-31T08:32:49;102017.09;;;7.61;87.28
37852;BME280;23691;52.486;4.650;2023-01-31T08:35:15;102023.75;;;7.66;87.12
37852;BME280;23691;52.486;4.650;2023-01-31T08:37:40;102011.03;;;7.70;86.82
37852;BME280;23691;52.486;4.650;2023-01-31T08:40:06;102016.28;;;7.71;86.85
37852;BME280;23691;52.486;4.650;2023-01-31T08:42:31;101997.50;;;7.73;86.93
37852;BME280;23691;52.486;4.650;2023-01-31T08:44:57;101980.19;;;7.79;87.36
37852;BME280;23691;52.486;4.650;2023-01-31T08:47:22;101990.50;;;7.83;86.73
37852;BME280;23691;52.486;4.650;2023-01-31T08:49:47;101991.25;;;7.85;86.52
37852;BME280;23691;52.486;4.650;2023-01-31T08:52:13;101982.38;;;7.85;86.58
37852;BME280;23691;52.486;4.650;2023-01-31T08:54:38;101976.94;;;7.86;86.81
37852;BME280;23691;52.486;4.650;2023-01-31T08:57:03;101967.13;;;7.87;86.63
37852;BME280;23691;52.486;4.650;2023-01-31T08:59:29;101963.84;;;7.94;86.57
37852;BME280;23691;52.486;4.650;2023-01-31T09:01:54;101992.06;;;7.97;86.37
37852;BME280;23691;52.486;4.650;2023-01-31T09:04:19;101968.00;;;7.99;86.19
37852;BME280;23691;52.486;4.650;2023-01-31T09:06:45;101979.38;;;8.01;86.20
37852;BME280;23691;52.486;4.650;2023-01-31T09:09:10;101977.19;;;8.06;85.85
37852;BME280;23691;52.486;4.650;2023-01-31T09:11:35;101976.94;;;8.09;85.71
37852;BME280;23691;52.486;4.650;2023-01-31T09:14:01;101967.88;;;8.11;85.62
37852;BME280;23691;52.486;4.650;2023-01-31T09:16:26;101966.41;;;8.18;85.27
37852;BME280;23691;52.486;4.650;2023-01-31T09:18:52;101966.78;;;8.25;85.65
37852;BME280;23691;52.486;4.650;2023-01-31T09:21:19;101968.84;;;8.33;85.02
37852;BME280;23691;52.486;4.650;2023-01-31T09:23:46;101976.34;;;8.39;84.81
37852;BME280;23691;52.486;4.650;2023-01-31T09:26:13;101976.00;;;8.44;85.28
37852;BME280;23691;52.486;4.650;2023-01-31T09:28:40;101983.88;;;8.45;84.53
37852;BME280;23691;52.486;4.650;2023-01-31T09:31:09;101990.78;;;8.48;84.81
37852;BME280;23691;52.486;4.650;2023-01-31T09:33:35;101986.03;;;8.51;84.51
37852;BME280;23691;52.486;4.650;2023-01-31T09:36:06;101985.09;;;8.52;84.52
37852;BME280;23691;52.486;4.650;2023-01-31T09:38:32;101982.53;;;8.51;84.52
37852;BME280;23691;52.486;4.650;2023-01-31T09:41:42;101988.84;;;8.50;84.60
37852;BME280;23691;52.486;4.650;2023-01-31T09:43:52;101979.88;;;8.51;84.55
37852;BME280;23691;52.486;4.650;2023-01-31T09:46:23;101978.03;;;8.51;84.57
37852;BME280;23691;52.486;4.650;2023-01-31T09:48:51;101977.09;;;8.52;84.67
37852;BME280;23691;52.486;4.650;2023-01-31T09:51:18;101986.78;;;8.53;84.63
37852;BME280;23691;52.486;4.650;2023-01-31T09:53:44;101975.63;;;8.48;84.51
37852;BME280;23691;52.486;4.650;2023-01-31T09:56:41;101980.59;;;8.53;84.85
37852;BME280;23691;52.486;4.650;2023-01-31T10:05:12;101977.41;;;8.70;84.08
37852;BME280;23691;52.486;4.650;2023-01-31T10:10:58;101970.81;;;8.86;83.19
37852;BME280;23691;52.486;4.650;2023-01-31T10:13:59;101971.28;;;8.91;82.81
37852;BME280;23691;52.486;4.650;2023-01-31T10:16:30;101968.41;;;8.94;82.65
37852;BME280;23691;52.486;4.650;2023-01-31T10:19:04;101965.56;;;8.95;82.44
37852;BME280;23691;52.486;4.650;2023-01-31T10:22:07;101971.91;;;8.94;81.95
37852;BME280;23691;52.486;4.650;2023-01-31T10:24:41;101977.63;;;8.90;81.93
37852;BME280;23691;52.486;4.650;2023-01-31T10:27:20;101969.97;;;8.96;81.80
37852;BME280;23691;52.486;4.650;2023-01-31T10:29:52;101987.63;;;9.09;81.56
37852;BME280;23691;52.486;4.650;2023-01-31T10:32:36;101990.03;;;9.12;81.24
37852;BME280;23691;52.486;4.650;2023-01-31T10:35:26;102002.31;;;9.03;81.43
37852;BME280;23691;52.486;4.650;2023-01-31T10:37:59;101992.16;;;8.97;81.50
37852;BME280;23691;52.486;4.650;2023-01-31T10:40:38;102004.78;;;8.95;81.49
37852;BME280;23691;52.486;4.650;2023-01-31T10:46:01;102000.44;;;8.82;81.43
37852;BME280;23691;52.486;4.650;2023-01-31T10:48:28;102008.44;;;8.82;81.60
37852;BME280;23691;52.486;4.650;2023-01-31T10:56:37;102003.00;;;8.84;81.76
37852;BME280;23691;52.486;4.650;2023-01-31T10:59:22;102012.81;;;8.84;82.05
37852;BME280;23691;52.486;4.650;2023-01-31T11:01:49;102013.66;;;8.84;81.85
37852;BME280;23691;52.486;4.650;2023-01-31T11:06:48;102006.63;;;8.83;82.19
37852;BME280;23691;52.486;4.650;2023-01-31T11:09:15;102017.28;;;8.83;82.07
37852;BME280;23691;52.486;4.650;2023-01-31T11:11:58;102017.19;;;8.85;82.01
37852;BME280;23691;52.486;4.650;2023-01-31T11:14:24;102010.63;;;8.89;81.94
37852;BME280;23691;52.486;4.650;2023-01-31T11:16:55;102009.38;;;8.93;81.86
37852;BME280;23691;52.486;4.650;2023-01-31T11:19:29;102005.38;;;8.98;81.71
37852;BME280;23691;52.486;4.650;2023-01-31T11:21:58;101978.56;;;9.00;81.44
37852;BME280;23691;52.486;4.650;2023-01-31T11:24:26;101987.66;;;8.97;81.55
37852;BME280;23691;52.486;4.650;2023-01-31T11:27:05;101977.13;;;8.96;81.77
37852;BME280;23691;52.486;4.650;2023-01-31T11:29:46;101980.50;;;8.98;81.52
37852;BME280;23691;52.486;4.650;2023-01-31T11:32:21;101983.63;;;9.03;81.66
37852;BME280;23691;52.486;4.650;2023-01-31T11:40:33;101975.16;;;9.30;80.68
37852;BME280;23691;52.486;4.650;2023-01-31T11:43:21;101985.97;;;9.29;80.61
37852;BME280;23691;52.486;4.650;2023-01-31T11:45:57;101982.78;;;9.35;80.58
37852;BME280;23691;52.486;4.650;2023-01-31T11:48:35;101954.00;;;9.38;80.52
37852;BME280;23691;52.486;4.650;2023-01-31T11:51:03;101936.88;;;9.41;80.51
37852;BME280;23691;52.486;4.650;2023-01-31T11:53:42;101945.22;;;9.48;80.56
37852;BME280;23691;52.486;4.650;2023-01-31T11:56:27;101933.72;;;9.57;80.30
37852;BME280;23691;52.486;4.650;2023-01-31T11:58:57;101933.22;;;9.63;79.91
37852;BME280;23691;52.486;4.650;2023-01-31T12:01:26;101939.13;;;9.66;79.93
37852;BME280;23691;52.486;4.650;2023-01-31T12:03:55;101929.03;;;9.70;79.96
37852;BME280;23691;52.486;4.650;2023-01-31T12:06:35;101928.38;;;9.78;79.76
37852;BME280;23691;52.486;4.650;2023-01-31T12:09:22;101927.53;;;9.77;79.58
37852;BME280;23691;52.486;4.650;2023-01-31T12:11:52;101923.09;;;9.66;79.73
37852;BME280;23691;52.486;4.650;2023-01-31T12:14:18;101927.88;;;9.63;79.50
37852;BME280;23691;52.486;4.650;2023-01-31T12:16:45;101920.16;;;9.70;79.56
37852;BME280;23691;52.486;4.650;2023-01-31T12:24:33;101923.41;;;9.73;79.12
37852;BME280;23691;52.486;4.650;2023-01-31T12:27:13;101925.97;;;9.75;78.96
37852;BME280;23691;52.486;4.650;2023-01-31T12:35:26;101892.94;;;9.85;78.91
37852;BME280;23691;52.486;4.650;2023-01-31T12:47:07;101889.69;;;9.82;78.88
37852;BME280;23691;52.486;4.650;2023-01-31T12:52:35;101907.31;;;9.94;78.65
37852;BME280;23691;52.486;4.650;2023-01-31T13:03:17;101913.66;;;9.62;79.44
37852;BME280;23691;52.486;4.650;2023-01-31T13:06:09;101909.09;;;9.53;79.65
37852;BME280;23691;52.486;4.650;2023-01-31T13:08:43;101897.81;;;9.50;79.84
37852;BME280;23691;52.486;4.650;2023-01-31T13:11:15;101899.53;;;9.51;79.95
37852;BME280;23691;52.486;4.650;2023-01-31T13:13:55;101910.34;;;9.49;79.78
37852;BME280;23691;52.486;4.650;2023-01-31T13:16:28;101905.16;;;9.48;80.17
37852;BME280;23691;52.486;4.650;2023-01-31T13:18:59;101926.63;;;9.46;80.25
37852;BME280;23691;52.486;4.650;2023-01-31T13:21:29;101906.66;;;9.40;80.53
37852;BME280;23691;52.486;4.650;2023-01-31T13:24:04;101911.13;;;9.40;80.55
37852;BME280;23691;52.486;4.650;2023-01-31T13:26:34;101912.50;;;9.34;80.87
37852;BME280;23691;52.486;4.650;2023-01-31T13:29:13;101923.28;;;9.33;81.09
37852;BME280;23691;52.486;4.650;2023-01-31T13:34:23;101936.19;;;9.28;81.20
37852;BME280;23691;52.486;4.650;2023-01-31T13:37:00;101926.38;;;9.28;81.03
37852;BME280;23691;52.486;4.650;2023-01-31T13:39:36;101933.66;;;9.26;81.05
37852;BME280;23691;52.486;4.650;2023-01-31T13:42:03;101941.69;;;9.26;81.25
37852;BME280;23691;52.486;4.650;2023-01-31T13:44:29;101938.88;;;9.28;81.06
37852;BME280;23691;52.486;4.650;2023-01-31T13:47:22;101955.34;;;9.33;81.02
37852;BME280;23691;52.486;4.650;2023-01-31T13:52:36;101946.25;;;9.35;80.70
37852;BME280;23691;52.486;4.650;2023-01-31T13:55:07;101950.34;;;9.39;80.85
37852;BME280;23691;52.486;4.650;2023-01-31T13:57:41;101953.72;;;9.41;80.59
37852;BME280;23691;52.486;4.650;2023-01-31T14:00:36;101959.66;;;9.45;80.25
37852;BME280;23691;52.486;4.650;2023-01-31T14:03:17;101964.16;;;9.44;80.46
37852;BME280;23691;52.486;4.650;2023-01-31T14:13:49;101964.31;;;9.43;80.28
37852;BME280;23691;52.486;4.650;2023-01-31T14:16:39;101965.72;;;9.47;80.05
37852;BME280;23691;52.486;4.650;2023-01-31T14:21:52;101970.47;;;9.43;79.92
37852;BME280;23691;52.486;4.650;2023-01-31T14:24:53;101985.06;;;9.39;79.69
37852;BME280;23691;52.486;4.650;2023-01-31T14:30:08;101968.44;;;9.57;79.24
37852;BME280;23691;52.486;4.650;2023-01-31T14:40:31;101986.25;;;9.46;79.34
37852;BME280;23691;52.486;4.650;2023-01-31T14:51:27;102003.25;;;9.45;80.04
37852;BME280;23691;52.486;4.650;2023-01-31T14:54:31;101986.63;;;9.42;79.96
37852;BME280;23691;52.486;4.650;2023-01-31T14:57:18;101991.41;;;9.38;80.01
37852;BME280;23691;52.486;4.650;2023-01-31T15:02:39;101984.59;;;9.34;79.69
37852;BME280;23691;52.486;4.650;2023-01-31T15:05:16;101991.06;;;9.32;79.44
37852;BME280;23691;52.486;4.650;2023-01-31T15:11:10;102000.69;;;9.23;78.72
37852;BME280;23691;52.486;4.650;2023-01-31T15:13:49;102019.50;;;9.21;78.47
37852;BME280;23691;52.486;4.650;2023-01-31T15:16:30;102020.34;;;9.22;78.24
37852;BME280;23691;52.486;4.650;2023-01-31T15:18:58;102023.84;;;9.22;78.12
37852;BME280;23691;52.486;4.650;2023-01-31T15:21:33;102028.81;;;9.27;77.94
37852;BME280;23691;52.486;4.650;2023-01-31T15:24:01;102028.09;;;9.25;77.73
37852;BME280;23691;52.486;4.650;2023-01-31T15:26:29;102037.22;;;9.22;77.51
37852;BME280;23691;52.486;4.650;2023-01-31T15:28:57;102027.03;;;9.16;77.12
37852;BME280;23691;52.486;4.650;2023-01-31T15:31:29;102037.13;;;9.13;77.01
37852;BME280;23691;52.486;4.650;2023-01-31T15:34:00;102037.63;;;9.07;76.53